sensor_id;sensor_type;location;lat;lon;timestamp;pressure;altitude;pressure_sealevel;temperature;humidity
80382;BME280;69692;55.820;37.490;2023-06-10T00:01:57;100177.28;;;13.32;56.01
80382;BME280;69692;55.820;37.490;2023-06-10T00:04:23;100174.59;;;13.32;55.98
80382;BME280;69692;55.820;37.490;2023-06-10T00:06:49;100177.75;;;13.29;56.29
80382;BME280;69692;55.820;37.490;2023-06-10T00:09:16;100172.84;;;13.26;56.10
80382;BME280;69692;55.820;37.490;2023-06-10T00:11:44;100181.38;;;13.23;56.43
80382;BME280;69692;55.820;37.490;2023-06-10T00:14:10;100181.03;;;13.20;56.53
80382;BME280;69692;55.820;37.490;2023-06-10T00:16:36;100185.81;;;13.18;56.29
80382;BME280;69692;55.820;37.490;2023-06-10T00:19:03;100178.19;;;13.14;56.98
80382;BME280;69692;55.820;37.490;2023-06-10T00:21:31;100179.25;;;13.13;56.94
80382;BME280;69692;55.820;37.490;2023-06-10T00:24:07;100183.25;;;13.11;56.29
80382;BME280;69692;55.820;37.490;2023-06-10T00:26:39;100196.53;;;13.12;57.07
80382;BME280;69692;55.820;37.490;2023-06-10T00:29:05;100191.13;;;13.12;56.73
80382;BME280;69692;55.820;37.490;2023-06-10T00:31:31;100197.91;;;13.03;57.29
80382;BME280;69692;55.820;37.490;2023-06-10T00:33:58;100190.28;;;13.00;57.17
80382;BME280;69692;55.820;37.490;2023-06-10T00:36:24;100209.19;;;13.00;57.37
80382;BME280;69692;55.820;37.490;2023-06-10T00:38:50;100211.38;;;12.92;57.70
80382;BME280;69692;55.820;37.490;2023-06-10T00:41:16;100211.38;;;12.92;58.35
80382;BME280;69692;55.820;37.490;2023-06-10T00:43:43;100218.06;;;12.89;58.28
80382;BME280;69692;55.820;37.490;2023-06-10T00:46:11;100218.91;;;12.90;58.57
80382;BME280;69692;55.820;37.490;2023-06-10T00:48:42;100219.72;;;12.90;58.81
80382;BME280;69692;55.820;37.490;2023-06-10T00:51:08;100221.13;;;12.93;58.80
80382;BME280;69692;55.820;37.490;2023-06-10T00:53:36;100224.22;;;12.96;58.74
80382;BME280;69692;55.820;37.490;2023-06-10T00:56:03;100226.66;;;12.86;59.58
80382;BME280;69692;55.820;37.490;2023-06-10T00:58:29;100228.53;;;12.86;58.89
80382;BME280;69692;55.820;37.490;2023-06-10T01:00:55;100237.91;;;12.83;59.11
80382;BME280;69692;55.820;37.490;2023-06-10T01:03:21;100229.44;;;12.79;59.53
80382;BME280;69692;55.820;37.490;2023-06-10T01:06:01;100238.00;;;12.76;60.03
80382;BME280;69692;55.820;37.490;2023-06-10T01:11:23;100240.81;;;12.70;59.79
80382;BME280;69692;55.820;37.490;2023-06-10T01:13:50;100248.16;;;12.63;59.97
80382;BME280;69692;55.820;37.490;2023-06-10T01:16:21;100245.34;;;12.58;59.72
80382;BME280;69692;55.820;37.490;2023-06-10T01:18:47;100253.91;;;12.54;60.45
80382;BME280;69692;55.820;37.490;2023-06-10T01:21:19;100263.13;;;12.47;60.20
80382;BME280;69692;55.820;37.490;2023-06-10T01:23:45;100259.59;;;12.46;60.29
80382;BME280;69692;55.820;37.490;2023-06-10T01:26:11;100256.31;;;12.44;60.32
80382;BME280;69692;55.820;37.490;2023-06-10T01:28:49;100260.28;;;12.42;60.49
80382;BME280;69692;55.820;37.490;2023-06-10T01:34:03;100261.25;;;12.47;60.28
80382;BME280;69692;55.820;37.490;2023-06-10T01:36:32;100267.84;;;12.51;60.58
80382;BME280;69692;55.820;37.490;2023-06-10T01:38:59;100279.25;;;12.53;60.79
80382;BME280;69692;55.820;37.490;2023-06-10T01:41:26;100268.69;;;12.52;60.15
80382;BME280;69692;55.820;37.490;2023-06-10T01:43:54;100263.50;;;12.50;59.98
80382;BME280;69692;55.820;37.490;2023-06-10T01:46:20;100279.53;;;12.45;60.49
80382;BME280;69692;55.820;37.490;2023-06-10T01:48:47;100277.66;;;12.46;60.45
80382;BME280;69692;55.820;37.490;2023-06-10T01:51:15;100268.84;;;12.39;60.05
80382;BME280;69692;55.820;37.490;2023-06-10T01:53:40;100282.41;;;12.32;60.72
80382;BME280;69692;55.820;37.490;2023-06-10T01:56:06;100283.47;;;12.31;61.57
80382;BME280;69692;55.820;37.490;2023-06-10T01:58:32;100277.00;;;12.32;61.02
80382;BME280;69692;55.820;37.490;2023-06-10T02:00:58;100282.66;;;12.12;61.74
80382;BME280;69692;55.820;37.490;2023-06-10T02:03:24;100288.41;;;12.16;61.60
80382;BME280;69692;55.820;37.490;2023-06-10T02:05:50;100289.00;;;12.18;61.45
80382;BME280;69692;55.820;37.490;2023-06-10T02:08:16;100297.09;;;12.18;62.01
80382;BME280;69692;55.820;37.490;2023-06-10T02:10:42;100292.75;;;12.17;61.81
80382;BME280;69692;55.820;37.490;2023-06-10T02:13:10;100293.16;;;12.20;61.00
80382;BME280;69692;55.820;37.490;2023-06-10T02:15:37;100302.25;;;12.19;61.23
80382;BME280;69692;55.820;37.490;2023-06-10T02:18:04;100299.38;;;12.21;61.39
80382;BME280;69692;55.820;37.490;2023-06-10T02:20:29;100310.34;;;12.19;61.91
80382;BME280;69692;55.820;37.490;2023-06-10T02:22:57;100309.53;;;12.19;61.52
80382;BME280;69692;55.820;37.490;2023-06-10T02:25:23;100300.63;;;12.18;61.92
80382;BME280;69692;55.820;37.490;2023-06-10T02:27:50;100307.22;;;12.22;60.86
80382;BME280;69692;55.820;37.490;2023-06-10T02:30:17;100314.72;;;12.20;60.85
80382;BME280;69692;55.820;37.490;2023-06-10T02:32:44;100309.72;;;12.24;60.75
80382;BME280;69692;55.820;37.490;2023-06-10T02:35:15;100307.00;;;12.24;60.26
80382;BME280;69692;55.820;37.490;2023-06-10T02:37:41;100303.84;;;12.27;60.17
80382;BME280;69692;55.820;37.490;2023-06-10T02:40:09;100304.81;;;12.33;60.54
80382;BME280;69692;55.820;37.490;2023-06-10T02:42:37;100309.78;;;12.36;59.93
80382;BME280;69692;55.820;37.490;2023-06-10T02:45:04;100311.03;;;12.33;59.78
80382;BME280;69692;55.820;37.490;2023-06-10T02:47:38;100313.59;;;12.28;58.95
80382;BME280;69692;55.820;37.490;2023-06-10T02:50:06;100319.00;;;12.28;59.16
80382;BME280;69692;55.820;37.490;2023-06-10T02:52:37;100319.22;;;12.27;59.67
80382;BME280;69692;55.820;37.490;2023-06-10T02:55:04;100327.69;;;12.30;59.64
80382;BME280;69692;55.820;37.490;2023-06-10T02:57:30;100330.97;;;12.32;59.07
80382;BME280;69692;55.820;37.490;2023-06-10T02:59:56;100314.66;;;12.27;59.49
80382;BME280;69692;55.820;37.490;2023-06-10T03:02:22;100325.66;;;12.26;59.27
80382;BME280;69692;55.820;37.490;2023-06-10T03:04:55;100327.53;;;12.25;59.31
80382;BME280;69692;55.820;37.490;2023-06-10T03:07:21;100328.13;;;12.27;59.19
80382;BME280;69692;55.820;37.490;2023-06-10T03:09:48;100328.03;;;12.34;58.98
80382;BME280;69692;55.820;37.490;2023-06-10T03:12:15;100324.69;;;12.38;58.87
80382;BME280;69692;55.820;37.490;2023-06-10T03:14:45;100329.63;;;12.41;58.54
80382;BME280;69692;55.820;37.490;2023-06-10T03:17:11;100319.66;;;12.42;58.91
80382;BME280;69692;55.820;37.490;2023-06-10T03:19:40;100333.97;;;12.42;58.87
80382;BME280;69692;55.820;37.490;2023-06-10T03:22:14;100333.38;;;12.40;58.59
80382;BME280;69692;55.820;37.490;2023-06-10T03:24:50;100323.19;;;12.42;58.90
80382;BME280;69692;55.820;37.490;2023-06-10T03:27:17;100335.75;;;12.48;58.23
80382;BME280;69692;55.820;37.490;2023-06-10T03:29:46;100332.41;;;12.53;58.36
80382;BME280;69692;55.820;37.490;2023-06-10T03:32:12;100333.38;;;12.59;57.61
80382;BME280;69692;55.820;37.490;2023-06-10T03:34:40;100330.59;;;12.65;57.96
80382;BME280;69692;55.820;37.490;2023-06-10T03:37:06;100333.72;;;12.62;57.87
80382;BME280;69692;55.820;37.490;2023-06-10T03:39:32;100336.72;;;12.72;57.52
80382;BME280;69692;55.820;37.490;2023-06-10T03:41:59;100341.19;;;12.78;57.37
80382;BME280;69692;55.820;37.490;2023-06-10T03:44:26;100342.03;;;12.79;57.70
80382;BME280;69692;55.820;37.490;2023-06-10T03:46:54;100343.47;;;12.81;57.62
80382;BME280;69692;55.820;37.490;2023-06-10T03:49:21;100342.19;;;12.84;57.28
80382;BME280;69692;55.820;37.490;2023-06-10T03:51:53;100349.13;;;12.92;57.13
80382;BME280;69692;55.820;37.490;2023-06-10T03:54:20;100346.94;;;13.00;57.67
80382;BME280;69692;55.820;37.490;2023-06-10T03:56:46;100349.19;;;13.03;55.69
80382;BME280;69692;55.820;37.490;2023-06-10T03:59:14;100346.75;;;13.13;54.73
80382;BME280;69692;55.820;37.490;2023-06-10T04:01:41;100340.31;;;13.14;54.42
80382;BME280;69692;55.820;37.490;2023-06-10T04:04:08;100346.91;;;13.19;53.89
80382;BME280;69692;55.820;37.490;2023-06-10T04:06:35;100352.75;;;13.16;53.73
80382;BME280;69692;55.820;37.490;2023-06-10T04:09:03;100352.25;;;13.25;53.74
80382;BME280;69692;55.820;37.490;2023-06-10T04:11:29;100354.47;;;13.28;54.27
80382;BME280;69692;55.820;37.490;2023-06-10T04:13:57;100357.53;;;13.32;54.08
80382;BME280;69692;55.820;37.490;2023-06-10T04:16:24;100357.22;;;13.40;54.02
80382;BME280;69692;55.820;37.490;2023-06-10T04:18:50;100357.69;;;13.49;53.88
80382;BME280;69692;55.820;37.490;2023-06-10T04:21:17;100347.84;;;13.54;53.82
80382;BME280;69692;55.820;37.490;2023-06-10T04:23:44;100347.38;;;13.57;53.57
80382;BME280;69692;55.820;37.490;2023-06-10T04:26:10;100350.78;;;13.64;52.73
80382;BME280;69692;55.820;37.490;2023-06-10T04:28:38;100358.66;;;13.66;52.59
80382;BME280;69692;55.820;37.490;2023-06-10T04:31:04;100357.25;;;13.63;51.78
80382;BME280;69692;55.820;37.490;2023-06-10T04:33:31;100360.44;;;13.72;52.12
80382;BME280;69692;55.820;37.490;2023-06-10T04:35:58;100354.81;;;13.73;51.03
80382;BME280;69692;55.820;37.490;2023-06-10T04:38:27;100359.25;;;13.80;50.97
80382;BME280;69692;55.820;37.490;2023-06-10T04:40:54;100365.88;;;13.84;50.98
80382;BME280;69692;55.820;37.490;2023-06-10T04:43:21;100370.66;;;13.82;49.69
80382;BME280;69692;55.820;37.490;2023-06-10T04:45:48;100371.88;;;13.86;50.60
80382;BME280;69692;55.820;37.490;2023-06-10T04:48:15;100375.75;;;13.90;50.02
80382;BME280;69692;55.820;37.490;2023-06-10T04:50:41;100365.50;;;13.92;49.56
80382;BME280;69692;55.820;37.490;2023-06-10T04:53:07;100379.63;;;13.94;49.12
80382;BME280;69692;55.820;37.490;2023-06-10T04:55:36;100384.69;;;14.02;49.84
80382;BME280;69692;55.820;37.490;2023-06-10T04:58:02;100381.16;;;14.01;49.36
80382;BME280;69692;55.820;37.490;2023-06-10T05:00:28;100385.97;;;14.11;49.69
80382;BME280;69692;55.820;37.490;2023-06-10T05:02:54;100384.31;;;14.10;48.95
80382;BME280;69692;55.820;37.490;2023-06-10T05:05:22;100377.75;;;14.18;48.38
80382;BME280;69692;55.820;37.490;2023-06-10T05:07:48;100386.69;;;14.18;49.11
80382;BME280;69692;55.820;37.490;2023-06-10T05:10:14;100387.13;;;14.27;49.06
80382;BME280;69692;55.820;37.490;2023-06-10T05:12:40;100384.00;;;14.30;50.44
80382;BME280;69692;55.820;37.490;2023-06-10T05:15:07;100392.09;;;14.30;49.84
80382;BME280;69692;55.820;37.490;2023-06-10T05:17:33;100384.34;;;14.33;50.33
80382;BME280;69692;55.820;37.490;2023-06-10T05:20:01;100390.56;;;14.22;49.84
80382;BME280;69692;55.820;37.490;2023-06-10T05:22:28;100389.16;;;14.08;49.59
80382;BME280;69692;55.820;37.490;2023-06-10T05:24:53;100394.09;;;14.11;50.89
80382;BME280;69692;55.820;37.490;2023-06-10T05:27:19;100395.06;;;14.17;50.28
80382;BME280;69692;55.820;37.490;2023-06-10T05:29:45;100384.22;;;16.33;66.38
80382;BME280;69692;55.820;37.490;2023-06-10T05:32:11;100386.31;;;17.99;58.27
80382;BME280;69692;55.820;37.490;2023-06-10T05:34:37;100386.63;;;19.02;53.81
80382;BME280;69692;55.820;37.490;2023-06-10T05:37:04;100390.25;;;19.49;48.54
80382;BME280;69692;55.820;37.490;2023-06-10T05:39:29;100394.97;;;20.09;49.52
80382;BME280;69692;55.820;37.490;2023-06-10T05:41:55;100388.41;;;20.00;38.88
80382;BME280;69692;55.820;37.490;2023-06-10T05:44:21;100385.47;;;18.88;40.91
80382;BME280;69692;55.820;37.490;2023-06-10T05:46:47;100392.78;;;17.88;42.60
80382;BME280;69692;55.820;37.490;2023-06-10T05:49:13;100406.38;;;17.07;43.68
80382;BME280;69692;55.820;37.490;2023-06-10T05:51:38;100412.81;;;16.57;45.06
80382;BME280;69692;55.820;37.490;2023-06-10T05:54:04;100413.84;;;16.18;45.79
80382;BME280;69692;55.820;37.490;2023-06-10T05:56:30;100414.19;;;15.88;46.63
80382;BME280;69692;55.820;37.490;2023-06-10T05:58:56;100411.97;;;15.68;47.51
80382;BME280;69692;55.820;37.490;2023-06-10T06:01:21;100418.84;;;15.30;47.66
80382;BME280;69692;55.820;37.490;2023-06-10T06:03:47;100413.31;;;15.25;48.12
80382;BME280;69692;55.820;37.490;2023-06-10T06:06:13;100412.13;;;15.04;48.54
80382;BME280;69692;55.820;37.490;2023-06-10T06:08:39;100412.53;;;14.84;48.50
80382;BME280;69692;55.820;37.490;2023-06-10T06:11:05;100411.94;;;14.82;48.70
80382;BME280;69692;55.820;37.490;2023-06-10T06:13:30;100413.81;;;14.94;48.38
80382;BME280;69692;55.820;37.490;2023-06-10T06:15:56;100408.34;;;15.05;48.37
80382;BME280;69692;55.820;37.490;2023-06-10T06:18:22;100414.41;;;15.24;48.06
80382;BME280;69692;55.820;37.490;2023-06-10T06:20:48;100419.63;;;15.42;47.45
80382;BME280;69692;55.820;37.490;2023-06-10T06:23:14;100420.88;;;15.51;48.01
80382;BME280;69692;55.820;37.490;2023-06-10T06:25:39;100420.25;;;15.61;47.89
80382;BME280;69692;55.820;37.490;2023-06-10T06:28:06;100413.19;;;15.77;46.64
80382;BME280;69692;55.820;37.490;2023-06-10T06:30:33;100418.91;;;15.92;47.55
80382;BME280;69692;55.820;37.490;2023-06-10T06:32:58;100416.00;;;15.99;46.59
80382;BME280;69692;55.820;37.490;2023-06-10T06:35:24;100419.03;;;15.86;47.11
80382;BME280;69692;55.820;37.490;2023-06-10T06:37:50;100427.69;;;15.66;48.13
80382;BME280;69692;55.820;37.490;2023-06-10T06:40:22;100430.75;;;15.29;46.81
80382;BME280;69692;55.820;37.490;2023-06-10T06:42:48;100418.91;;;15.18;47.55
80382;BME280;69692;55.820;37.490;2023-06-10T06:45:33;100430.28;;;15.04;47.56
80382;BME280;69692;55.820;37.490;2023-06-10T06:47:59;100444.03;;;15.02;48.31
80382;BME280;69692;55.820;37.490;2023-06-10T06:50:25;100439.69;;;15.01;48.20
80382;BME280;69692;55.820;37.490;2023-06-10T06:52:52;100440.91;;;14.94;48.44
80382;BME280;69692;55.820;37.490;2023-06-10T06:55:17;100440.91;;;14.82;48.37
80382;BME280;69692;55.820;37.490;2023-06-10T06:57:43;100444.47;;;14.71;48.96
80382;BME280;69692;55.820;37.490;2023-06-10T07:00:10;100447.75;;;14.84;49.15
80382;BME280;69692;55.820;37.490;2023-06-10T07:02:36;100440.28;;;15.03;47.92
80382;BME280;69692;55.820;37.490;2023-06-10T07:05:02;100438.31;;;15.27;47.53
80382;BME280;69692;55.820;37.490;2023-06-10T07:07:30;100445.88;;;15.54;46.78
80382;BME280;69692;55.820;37.490;2023-06-10T07:09:55;100439.28;;;15.78;46.07
80382;BME280;69692;55.820;37.490;2023-06-10T07:12:21;100442.00;;;15.95;46.01
80382;BME280;69692;55.820;37.490;2023-06-10T07:14:50;100438.72;;;15.93;45.10
80382;BME280;69692;55.820;37.490;2023-06-10T07:17:17;100434.50;;;15.85;44.13
80382;BME280;69692;55.820;37.490;2023-06-10T07:19:45;100442.34;;;15.98;44.48
80382;BME280;69692;55.820;37.490;2023-06-10T07:22:10;100443.31;;;15.92;44.39
80382;BME280;69692;55.820;37.490;2023-06-10T07:24:36;100446.69;;;15.83;44.23
80382;BME280;69692;55.820;37.490;2023-06-10T07:27:02;100456.59;;;15.77;45.33
80382;BME280;69692;55.820;37.490;2023-06-10T07:29:28;100457.78;;;15.52;44.99
80382;BME280;69692;55.820;37.490;2023-06-10T07:31:54;100461.94;;;15.43;47.47
80382;BME280;69692;55.820;37.490;2023-06-10T07:34:20;100461.06;;;15.26;45.78
80382;BME280;69692;55.820;37.490;2023-06-10T07:36:46;100465.81;;;15.19;46.58
80382;BME280;69692;55.820;37.490;2023-06-10T07:39:11;100463.81;;;15.14;46.35
80382;BME280;69692;55.820;37.490;2023-06-10T07:41:37;100472.31;;;15.18;46.15
80382;BME280;69692;55.820;37.490;2023-06-10T07:44:03;100470.19;;;15.20;46.94
80382;BME280;69692;55.820;37.490;2023-06-10T07:46:29;100470.75;;;15.22;46.65
80382;BME280;69692;55.820;37.490;2023-06-10T07:48:55;100471.25;;;15.19;46.65
80382;BME280;69692;55.820;37.490;2023-06-10T07:51:21;100480.69;;;15.05;46.47
80382;BME280;69692;55.820;37.490;2023-06-10T07:53:47;100479.50;;;15.01;46.61
80382;BME280;69692;55.820;37.490;2023-06-10T07:56:13;100477.28;;;14.98;46.86
80382;BME280;69692;55.820;37.490;2023-06-10T07:58:39;100473.03;;;15.42;45.60
80382;BME280;69692;55.820;37.490;2023-06-10T08:01:05;100477.75;;;15.92;44.39
80382;BME280;69692;55.820;37.490;2023-06-10T08:03:30;100467.25;;;16.12;42.19
80382;BME280;69692;55.820;37.490;2023-06-10T08:05:56;100477.69;;;16.20;42.23
80382;BME280;69692;55.820;37.490;2023-06-10T08:08:22;100490.75;;;15.90;42.02
80382;BME280;69692;55.820;37.490;2023-06-10T08:10:48;100490.19;;;15.88;41.72
80382;BME280;69692;55.820;37.490;2023-06-10T08:13:17;100477.69;;;16.20;42.22
80382;BME280;69692;55.820;37.490;2023-06-10T08:15:43;100487.91;;;16.13;40.67
80382;BME280;69692;55.820;37.490;2023-06-10T08:18:08;100485.00;;;16.03;40.78
80382;BME280;69692;55.820;37.490;2023-06-10T08:20:34;100486.59;;;16.16;40.40
80382;BME280;69692;55.820;37.490;2023-06-10T08:23:00;100490.69;;;16.18;39.75
80382;BME280;69692;55.820;37.490;2023-06-10T08:25:27;100487.84;;;16.08;38.94
80382;BME280;69692;55.820;37.490;2023-06-10T08:27:53;100495.31;;;16.18;39.51
80382;BME280;69692;55.820;37.490;2023-06-10T08:30:22;100495.53;;;16.50;38.46
80382;BME280;69692;55.820;37.490;2023-06-10T08:32:48;100490.66;;;16.85;39.43
80382;BME280;69692;55.820;37.490;2023-06-10T08:35:14;100490.41;;;16.87;37.40
80382;BME280;69692;55.820;37.490;2023-06-10T08:37:40;100496.91;;;16.86;38.16
80382;BME280;69692;55.820;37.490;2023-06-10T08:40:06;100496.97;;;16.52;37.59
80382;BME280;69692;55.820;37.490;2023-06-10T08:42:43;100515.38;;;16.33;38.91
80382;BME280;69692;55.820;37.490;2023-06-10T08:45:17;100520.50;;;16.30;38.39
80382;BME280;69692;55.820;37.490;2023-06-10T08:47:50;100514.66;;;16.72;37.30
80382;BME280;69692;55.820;37.490;2023-06-10T08:50:19;100496.31;;;17.01;37.30
80382;BME280;69692;55.820;37.490;2023-06-10T08:52:50;100503.00;;;17.37;37.29
80382;BME280;69692;55.820;37.490;2023-06-10T08:55:37;100507.09;;;17.61;35.96
80382;BME280;69692;55.820;37.490;2023-06-10T08:58:04;100499.16;;;17.33;35.44
80382;BME280;69692;55.820;37.490;2023-06-10T09:00:31;100507.75;;;17.24;35.28
80382;BME280;69692;55.820;37.490;2023-06-10T09:02:58;100505.75;;;17.15;35.03
80382;BME280;69692;55.820;37.490;2023-06-10T09:05:24;100504.78;;;17.48;34.90
80382;BME280;69692;55.820;37.490;2023-06-10T09:07:52;100504.47;;;17.22;36.27
80382;BME280;69692;55.820;37.490;2023-06-10T09:10:19;100510.13;;;17.65;35.50
80382;BME280;69692;55.820;37.490;2023-06-10T09:12:45;100497.41;;;17.70;35.37
80382;BME280;69692;55.820;37.490;2023-06-10T09:15:11;100514.69;;;17.59;36.95
80382;BME280;69692;55.820;37.490;2023-06-10T09:17:40;100515.13;;;17.07;37.16
80382;BME280;69692;55.820;37.490;2023-06-10T09:20:08;100516.38;;;16.78;37.02
80382;BME280;69692;55.820;37.490;2023-06-10T09:22:34;100514.41;;;16.56;37.22
80382;BME280;69692;55.820;37.490;2023-06-10T09:25:05;100516.72;;;16.31;37.39
80382;BME280;69692;55.820;37.490;2023-06-10T09:27:44;100521.88;;;16.32;38.41
80382;BME280;69692;55.820;37.490;2023-06-10T09:30:11;100511.69;;;16.39;38.05
80382;BME280;69692;55.820;37.490;2023-06-10T09:32:49;100514.25;;;16.29;37.33
80382;BME280;69692;55.820;37.490;2023-06-10T09:35:15;100517.44;;;16.43;37.47
80382;BME280;69692;55.820;37.490;2023-06-10T09:37:41;100500.34;;;17.42;36.41
80382;BME280;69692;55.820;37.490;2023-06-10T09:40:10;100508.91;;;17.55;36.41
80382;BME280;69692;55.820;37.490;2023-06-10T09:42:37;100511.97;;;17.37;35.13
80382;BME280;69692;55.820;37.490;2023-06-10T09:45:05;100519.84;;;17.34;35.80
80382;BME280;69692;55.820;37.490;2023-06-10T09:47:33;100517.53;;;17.69;35.09
80382;BME280;69692;55.820;37.490;2023-06-10T09:49:59;100516.47;;;17.70;34.60
80382;BME280;69692;55.820;37.490;2023-06-10T09:52:28;100512.63;;;18.25;33.53
80382;BME280;69692;55.820;37.490;2023-06-10T09:55:00;100511.25;;;19.02;32.51
80382;BME280;69692;55.820;37.490;2023-06-10T09:57:30;100507.91;;;19.47;31.44
80382;BME280;69692;55.820;37.490;2023-06-10T09:59:57;100509.13;;;19.09;32.71
80382;BME280;69692;55.820;37.490;2023-06-10T10:02:23;100507.09;;;18.89;32.74
80382;BME280;69692;55.820;37.490;2023-06-10T10:04:49;100518.16;;;19.15;33.73
80382;BME280;69692;55.820;37.490;2023-06-10T10:07:15;100511.06;;;19.14;32.99
80382;BME280;69692;55.820;37.490;2023-06-10T10:09:41;100515.00;;;18.48;34.51
80382;BME280;69692;55.820;37.490;2023-06-10T10:12:15;100521.38;;;18.00;34.21
80382;BME280;69692;55.820;37.490;2023-06-10T10:14:46;100537.03;;;17.61;35.65
80382;BME280;69692;55.820;37.490;2023-06-10T10:17:15;100527.88;;;17.45;34.61
80382;BME280;69692;55.820;37.490;2023-06-10T10:19:50;100527.84;;;17.67;34.71
80382;BME280;69692;55.820;37.490;2023-06-10T10:22:26;100526.31;;;17.54;34.00
80382;BME280;69692;55.820;37.490;2023-06-10T10:24:56;100530.84;;;17.44;32.63
80382;BME280;69692;55.820;37.490;2023-06-10T10:27:34;100522.09;;;17.85;32.81
80382;BME280;69692;55.820;37.490;2023-06-10T10:30:02;100524.31;;;18.21;33.16
80382;BME280;69692;55.820;37.490;2023-06-10T10:32:57;100530.63;;;17.99;32.38
80382;BME280;69692;55.820;37.490;2023-06-10T10:35:30;100521.28;;;18.17;33.15
80382;BME280;69692;55.820;37.490;2023-06-10T10:37:55;100514.03;;;19.07;32.40
80382;BME280;69692;55.820;37.490;2023-06-10T10:40:22;100511.31;;;19.80;30.15
80382;BME280;69692;55.820;37.490;2023-06-10T10:42:49;100516.31;;;20.44;30.70
80382;BME280;69692;55.820;37.490;2023-06-10T10:45:15;100503.44;;;20.44;29.98
80382;BME280;69692;55.820;37.490;2023-06-10T10:47:45;100512.16;;;19.95;30.37
80382;BME280;69692;55.820;37.490;2023-06-10T10:50:15;100510.44;;;19.59;30.24
80382;BME280;69692;55.820;37.490;2023-06-10T10:53:00;100513.44;;;19.62;30.23
80382;BME280;69692;55.820;37.490;2023-06-10T10:55:27;100514.63;;;20.02;28.63
80382;BME280;69692;55.820;37.490;2023-06-10T10:58:03;100512.72;;;20.64;28.84
80382;BME280;69692;55.820;37.490;2023-06-10T11:00:31;100502.69;;;21.24;27.17
80382;BME280;69692;55.820;37.490;2023-06-10T11:03:06;100494.34;;;21.59;27.49
80382;BME280;69692;55.820;37.490;2023-06-10T11:05:42;100509.34;;;20.97;27.88
80382;BME280;69692;55.820;37.490;2023-06-10T11:08:10;100518.13;;;20.99;27.11
80382;BME280;69692;55.820;37.490;2023-06-10T11:10:39;100512.44;;;20.65;27.44
80382;BME280;69692;55.820;37.490;2023-06-10T11:13:06;100511.31;;;21.61;45.72
80382;BME280;69692;55.820;37.490;2023-06-10T11:15:38;100502.88;;;22.94;33.63
80382;BME280;69692;55.820;37.490;2023-06-10T11:18:19;100500.88;;;23.00;36.20
80382;BME280;69692;55.820;37.490;2023-06-10T11:23:41;100505.72;;;23.50;29.31
80382;BME280;69692;55.820;37.490;2023-06-10T11:28:41;100514.72;;;22.26;28.06
80382;BME280;69692;55.820;37.490;2023-06-10T11:31:30;100526.28;;;21.14;28.30
80382;BME280;69692;55.820;37.490;2023-06-10T11:34:00;100515.97;;;20.05;29.05
80382;BME280;69692;55.820;37.490;2023-06-10T11:36:27;100514.16;;;19.38;29.72
80382;BME280;69692;55.820;37.490;2023-06-10T11:41:25;100519.13;;;19.51;30.20
80382;BME280;69692;55.820;37.490;2023-06-10T11:43:55;100525.78;;;19.18;29.86
80382;BME280;69692;55.820;37.490;2023-06-10T11:46:24;100522.13;;;19.49;29.72
80382;BME280;69692;55.820;37.490;2023-06-10T11:48:57;100513.75;;;19.76;29.75
80382;BME280;69692;55.820;37.490;2023-06-10T11:51:29;100519.50;;;19.07;29.65
80382;BME280;69692;55.820;37.490;2023-06-10T11:53:56;100513.16;;;19.01;30.66
80382;BME280;69692;55.820;37.490;2023-06-10T11:56:23;100517.19;;;19.46;29.47
80382;BME280;69692;55.820;37.490;2023-06-10T11:58:55;100510.19;;;19.65;30.05
80382;BME280;69692;55.820;37.490;2023-06-10T12:01:24;100512.91;;;19.60;29.69
80382;BME280;69692;55.820;37.490;2023-06-10T12:04:04;100516.28;;;20.29;29.75
80382;BME280;69692;55.820;37.490;2023-06-10T12:06:44;100521.97;;;20.88;29.42
80382;BME280;69692;55.820;37.490;2023-06-10T12:09:30;100516.84;;;20.25;29.66
80382;BME280;69692;55.820;37.490;2023-06-10T12:12:03;100524.16;;;19.79;31.68
80382;BME280;69692;55.820;37.490;2023-06-10T12:14:59;100522.63;;;19.41;33.46
80382;BME280;69692;55.820;37.490;2023-06-10T12:20:01;100521.13;;;19.65;32.48
80382;BME280;69692;55.820;37.490;2023-06-10T12:22:38;100522.00;;;20.12;31.89
80382;BME280;69692;55.820;37.490;2023-06-10T12:25:05;100525.03;;;20.41;31.36
80382;BME280;69692;55.820;37.490;2023-06-10T12:27:35;100524.44;;;20.90;30.93
80382;BME280;69692;55.820;37.490;2023-06-10T12:30:04;100526.97;;;20.56;29.45
80382;BME280;69692;55.820;37.490;2023-06-10T12:35:07;100524.94;;;19.64;31.09
80382;BME280;69692;55.820;37.490;2023-06-10T12:37:33;100537.22;;;19.77;31.27
80382;BME280;69692;55.820;37.490;2023-06-10T12:40:01;100528.38;;;19.45;31.65
80382;BME280;69692;55.820;37.490;2023-06-10T12:42:30;100522.09;;;18.87;33.17
80382;BME280;69692;55.820;37.490;2023-06-10T12:44:57;100518.88;;;18.58;32.34
80382;BME280;69692;55.820;37.490;2023-06-10T12:47:36;100523.22;;;18.54;33.99
80382;BME280;69692;55.820;37.490;2023-06-10T12:50:06;100522.66;;;18.20;32.67
80382;BME280;69692;55.820;37.490;2023-06-10T12:52:32;100531.75;;;17.71;33.08
80382;BME280;69692;55.820;37.490;2023-06-10T12:54:58;100525.47;;;17.71;33.29
80382;BME280;69692;55.820;37.490;2023-06-10T12:57:26;100517.50;;;18.18;32.19
80382;BME280;69692;55.820;37.490;2023-06-10T12:59:52;100519.09;;;18.51;32.33
80382;BME280;69692;55.820;37.490;2023-06-10T13:02:19;100517.44;;;18.82;31.86
80382;BME280;69692;55.820;37.490;2023-06-10T13:04:52;100516.31;;;19.30;29.87